sensor_id;sensor_type;location;lat;lon;timestamp;P1;durP1;ratioP1;P2;durP2;ratioP2
673;SDS011;319;48.764;9.174;2022-10-31T00:00:47;1.67;;;1.67;;
673;SDS011;319;48.764;9.174;2022-10-31T00:03:14;1.10;;;1.10;;
673;SDS011;319;48.764;9.174;2022-10-31T00:05:41;1.20;;;1.20;;
673;SDS011;319;48.764;9.174;2022-10-31T00:08:09;6.93;;;6.73;;
673;SDS011;319;48.764;9.174;2022-10-31T00:10:37;7.70;;;7.50;;
673;SDS011;319;48.764;9.174;2022-10-31T00:13:06;7.17;;;6.97;;
673;SDS011;319;48.764;9.174;2022-10-31T00:15:34;4.10;;;4.00;;
673;SDS011;319;48.764;9.174;2022-10-31T00:18:01;1.67;;;1.67;;
673;SDS011;319;48.764;9.174;2022-10-31T00:20:28;4.90;;;4.80;;
673;SDS011;319;48.764;9.174;2022-10-31T00:22:57;3.77;;;3.67;;
673;SDS011;319;48.764;9.174;2022-10-31T00:25:24;9.10;;;8.80;;
673;SDS011;319;48.764;9.174;2022-10-31T00:27:51;8.20;;;8.00;;
673;SDS011;319;48.764;9.174;2022-10-31T00:30:20;8.10;;;7.90;;
673;SDS011;319;48.764;9.174;2022-10-31T00:32:47;6.50;;;6.30;;
673;SDS011;319;48.764;9.174;2022-10-31T00:35:13;7.47;;;7.27;;
673;SDS011;319;48.764;9.174;2022-10-31T00:37:40;6.40;;;6.30;;
673;SDS011;319;48.764;9.174;2022-10-31T00:40:08;7.47;;;7.27;;
673;SDS011;319;48.764;9.174;2022-10-31T00:42:36;7.53;;;7.33;;
673;SDS011;319;48.764;9.174;2022-10-31T00:45:03;8.70;;;8.50;;
673;SDS011;319;48.764;9.174;2022-10-31T00:47:31;7.80;;;7.60;;
673;SDS011;319;48.764;9.174;2022-10-31T00:49:58;2.97;;;2.90;;
673;SDS011;319;48.764;9.174;2022-10-31T00:52:24;8.30;;;8.10;;
673;SDS011;319;48.764;9.174;2022-10-31T00:54:51;8.50;;;8.30;;
673;SDS011;319;48.764;9.174;2022-10-31T00:57:18;7.90;;;7.70;;
673;SDS011;319;48.764;9.174;2022-10-31T00:59:45;8.60;;;8.40;;
673;SDS011;319;48.764;9.174;2022-10-31T01:02:11;8.57;;;8.37;;
673;SDS011;319;48.764;9.174;2022-10-31T01:04:39;8.60;;;8.40;;
673;SDS011;319;48.764;9.174;2022-10-31T01:07:06;8.17;;;7.97;;
673;SDS011;319;48.764;9.174;2022-10-31T01:09:33;6.93;;;6.73;;
673;SDS011;319;48.764;9.174;2022-10-31T01:12:00;8.60;;;8.40;;
673;SDS011;319;48.764;9.174;2022-10-31T01:14:27;8.73;;;8.53;;
673;SDS011;319;48.764;9.174;2022-10-31T01:16:53;8.60;;;8.40;;
673;SDS011;319;48.764;9.174;2022-10-31T01:19:20;8.50;;;8.30;;
673;SDS011;319;48.764;9.174;2022-10-31T01:21:48;8.50;;;8.30;;
673;SDS011;319;48.764;9.174;2022-10-31T01:24:15;8.30;;;8.10;;
673;SDS011;319;48.764;9.174;2022-10-31T01:26:42;7.60;;;7.40;;
673;SDS011;319;48.764;9.174;2022-10-31T01:29:08;6.73;;;6.53;;
673;SDS011;319;48.764;9.174;2022-10-31T01:31:36;8.00;;;7.80;;
673;SDS011;319;48.764;9.174;2022-10-31T01:34:04;7.03;;;6.83;;
673;SDS011;319;48.764;9.174;2022-10-31T01:36:33;5.90;;;5.80;;
673;SDS011;319;48.764;9.174;2022-10-31T01:39:03;5.40;;;5.30;;
673;SDS011;319;48.764;9.174;2022-10-31T01:41:33;5.50;;;5.40;;
673;SDS011;319;48.764;9.174;2022-10-31T01:44:02;5.90;;;5.80;;
673;SDS011;319;48.764;9.174;2022-10-31T01:46:46;4.77;;;4.67;;
673;SDS011;319;48.764;9.174;2022-10-31T01:49:18;3.53;;;3.43;;
673;SDS011;319;48.764;9.174;2022-10-31T01:51:51;3.70;;;3.60;;
673;SDS011;319;48.764;9.174;2022-10-31T01:54:25;4.50;;;4.40;;
673;SDS011;319;48.764;9.174;2022-10-31T01:56:56;4.10;;;4.00;;
673;SDS011;319;48.764;9.174;2022-10-31T01:59:26;3.40;;;3.30;;
673;SDS011;319;48.764;9.174;2022-10-31T02:01:56;3.37;;;3.27;;
673;SDS011;319;48.764;9.174;2022-10-31T02:04:23;3.10;;;3.00;;
673;SDS011;319;48.764;9.174;2022-10-31T02:06:52;4.03;;;3.93;;
673;SDS011;319;48.764;9.174;2022-10-31T02:09:26;3.20;;;3.10;;
673;SDS011;319;48.764;9.174;2022-10-31T02:11:55;2.30;;;2.30;;
673;SDS011;319;48.764;9.174;2022-10-31T02:14:26;2.30;;;2.30;;
673;SDS011;319;48.764;9.174;2022-10-31T02:16:55;2.87;;;2.80;;
673;SDS011;319;48.764;9.174;2022-10-31T02:19:24;2.37;;;2.37;;
673;SDS011;319;48.764;9.174;2022-10-31T02:21:58;1.80;;;1.80;;
673;SDS011;319;48.764;9.174;2022-10-31T02:24:39;1.90;;;1.90;;
673;SDS011;319;48.764;9.174;2022-10-31T02:27:12;2.70;;;2.70;;
673;SDS011;319;48.764;9.174;2022-10-31T02:30:08;2.50;;;2.50;;
673;SDS011;319;48.764;9.174;2022-10-31T02:32:41;3.70;;;3.60;;
673;SDS011;319;48.764;9.174;2022-10-31T02:35:16;3.63;;;3.53;;
673;SDS011;319;48.764;9.174;2022-10-31T02:37:54;4.60;;;4.50;;
673;SDS011;319;48.764;9.174;2022-10-31T02:40:29;4.80;;;4.70;;
673;SDS011;319;48.764;9.174;2022-10-31T02:42:59;5.90;;;5.80;;
673;SDS011;319;48.764;9.174;2022-10-31T02:45:33;4.73;;;4.63;;
673;SDS011;319;48.764;9.174;2022-10-31T02:48:09;9.03;;;8.83;;
673;SDS011;319;48.764;9.174;2022-10-31T02:50:40;8.30;;;8.10;;
673;SDS011;319;48.764;9.174;2022-10-31T02:53:09;6.57;;;6.40;;
673;SDS011;319;48.764;9.174;2022-10-31T02:55:49;6.80;;;6.60;;
673;SDS011;319;48.764;9.174;2022-10-31T02:58:23;6.37;;;6.27;;
673;SDS011;319;48.764;9.174;2022-10-31T03:00:56;6.90;;;6.70;;
673;SDS011;319;48.764;9.174;2022-10-31T03:03:38;5.33;;;5.23;;
673;SDS011;319;48.764;9.174;2022-10-31T03:06:17;5.00;;;4.90;;
673;SDS011;319;48.764;9.174;2022-10-31T03:08:53;4.80;;;4.70;;
673;SDS011;319;48.764;9.174;2022-10-31T03:11:24;4.60;;;4.50;;
673;SDS011;319;48.764;9.174;2022-10-31T03:13:57;4.87;;;4.77;;
673;SDS011;319;48.764;9.174;2022-10-31T03:16:33;3.70;;;3.60;;
673;SDS011;319;48.764;9.174;2022-10-31T03:19:14;3.80;;;3.70;;
673;SDS011;319;48.764;9.174;2022-10-31T03:21:44;4.50;;;4.40;;
673;SDS011;319;48.764;9.174;2022-10-31T03:24:13;7.23;;;7.03;;
673;SDS011;319;48.764;9.174;2022-10-31T03:26:41;8.40;;;8.20;;
673;SDS011;319;48.764;9.174;2022-10-31T03:29:13;8.53;;;8.33;;
673;SDS011;319;48.764;9.174;2022-10-31T03:31:43;8.60;;;8.40;;
673;SDS011;319;48.764;9.174;2022-10-31T03:34:15;9.00;;;8.80;;
673;SDS011;319;48.764;9.174;2022-10-31T03:36:44;8.57;;;8.37;;
673;SDS011;319;48.764;9.174;2022-10-31T03:39:13;8.70;;;8.50;;
673;SDS011;319;48.764;9.174;2022-10-31T03:41:42;9.10;;;8.90;;
673;SDS011;319;48.764;9.174;2022-10-31T03:44:14;9.20;;;9.00;;
673;SDS011;319;48.764;9.174;2022-10-31T03:46:44;9.00;;;8.80;;
673;SDS011;319;48.764;9.174;2022-10-31T03:49:11;8.20;;;8.00;;
673;SDS011;319;48.764;9.174;2022-10-31T03:51:42;8.80;;;8.60;;
673;SDS011;319;48.764;9.174;2022-10-31T03:54:16;8.67;;;8.47;;
673;SDS011;319;48.764;9.174;2022-10-31T03:56:50;8.77;;;8.57;;
673;SDS011;319;48.764;9.174;2022-10-31T03:59:21;8.80;;;8.60;;
673;SDS011;319;48.764;9.174;2022-10-31T04:01:55;8.90;;;8.70;;
673;SDS011;319;48.764;9.174;2022-10-31T04:04:25;8.70;;;8.50;;
673;SDS011;319;48.764;9.174;2022-10-31T04:06:54;6.70;;;6.50;;
673;SDS011;319;48.764;9.174;2022-10-31T04:09:23;5.93;;;5.83;;
673;SDS011;319;48.764;9.174;2022-10-31T04:11:53;7.60;;;7.40;;
673;SDS011;319;48.764;9.174;2022-10-31T04:14:23;9.30;;;9.10;;
673;SDS011;319;48.764;9.174;2022-10-31T04:16:52;8.90;;;8.70;;
673;SDS011;319;48.764;9.174;2022-10-31T04:19:19;8.90;;;8.70;;
673;SDS011;319;48.764;9.174;2022-10-31T04:21:46;9.00;;;8.80;;
673;SDS011;319;48.764;9.174;2022-10-31T04:24:14;6.77;;;6.57;;
673;SDS011;319;48.764;9.174;2022-10-31T04:26:41;8.77;;;8.57;;
673;SDS011;319;48.764;9.174;2022-10-31T04:29:07;8.60;;;8.40;;
673;SDS011;319;48.764;9.174;2022-10-31T04:31:34;7.00;;;6.80;;
673;SDS011;319;48.764;9.174;2022-10-31T04:34:01;8.90;;;8.70;;
673;SDS011;319;48.764;9.174;2022-10-31T04:36:28;9.20;;;9.00;;
673;SDS011;319;48.764;9.174;2022-10-31T04:38:54;6.87;;;6.67;;
673;SDS011;319;48.764;9.174;2022-10-31T04:41:23;1.20;;;1.20;;
673;SDS011;319;48.764;9.174;2022-10-31T04:43:49;5.43;;;5.33;;
673;SDS011;319;48.764;9.174;2022-10-31T04:46:16;6.73;;;6.53;;
673;SDS011;319;48.764;9.174;2022-10-31T04:48:43;9.10;;;8.90;;
673;SDS011;319;48.764;9.174;2022-10-31T04:51:10;8.23;;;8.03;;
673;SDS011;319;48.764;9.174;2022-10-31T04:53:37;8.00;;;7.80;;
673;SDS011;319;48.764;9.174;2022-10-31T04:56:04;8.50;;;8.30;;
673;SDS011;319;48.764;9.174;2022-10-31T04:58:32;8.20;;;8.00;;
673;SDS011;319;48.764;9.174;2022-10-31T05:01:02;8.00;;;7.80;;
673;SDS011;319;48.764;9.174;2022-10-31T05:03:29;7.30;;;7.10;;
673;SDS011;319;48.764;9.174;2022-10-31T05:05:56;8.03;;;7.83;;
673;SDS011;319;48.764;9.174;2022-10-31T05:08:23;5.90;;;5.80;;
673;SDS011;319;48.764;9.174;2022-10-31T05:10:49;6.80;;;6.60;;
673;SDS011;319;48.764;9.174;2022-10-31T05:13:16;6.83;;;6.63;;
673;SDS011;319;48.764;9.174;2022-10-31T05:15:45;7.47;;;7.27;;
673;SDS011;319;48.764;9.174;2022-10-31T05:18:11;8.20;;;8.00;;
673;SDS011;319;48.764;9.174;2022-10-31T05:20:38;9.60;;;9.40;;
673;SDS011;319;48.764;9.174;2022-10-31T05:23:05;8.30;;;8.10;;
673;SDS011;319;48.764;9.174;2022-10-31T05:25:32;9.40;;;9.20;;
673;SDS011;319;48.764;9.174;2022-10-31T05:27:58;6.30;;;6.20;;
673;SDS011;319;48.764;9.174;2022-10-31T05:30:26;8.30;;;8.10;;
673;SDS011;319;48.764;9.174;2022-10-31T05:32:56;7.30;;;7.10;;
673;SDS011;319;48.764;9.174;2022-10-31T05:35:23;8.30;;;8.10;;
673;SDS011;319;48.764;9.174;2022-10-31T05:37:52;8.70;;;8.50;;
673;SDS011;319;48.764;9.174;2022-10-31T05:40:19;6.80;;;6.60;;
673;SDS011;319;48.764;9.174;2022-10-31T05:42:47;9.20;;;9.00;;
673;SDS011;319;48.764;9.174;2022-10-31T05:45:16;7.20;;;7.00;;
673;SDS011;319;48.764;9.174;2022-10-31T05:47:50;7.47;;;7.27;;
673;SDS011;319;48.764;9.174;2022-10-31T05:50:24;6.83;;;6.63;;
673;SDS011;319;48.764;9.174;2022-10-31T05:52:56;7.27;;;7.07;;
673;SDS011;319;48.764;9.174;2022-10-31T05:55:24;8.80;;;8.60;;
673;SDS011;319;48.764;9.174;2022-10-31T05:57:51;8.60;;;8.40;;
673;SDS011;319;48.764;9.174;2022-10-31T06:00:19;8.27;;;8.07;;
673;SDS011;319;48.764;9.174;2022-10-31T06:02:46;7.63;;;7.43;;
673;SDS011;319;48.764;9.174;2022-10-31T06:05:13;5.70;;;5.60;;
673;SDS011;319;48.764;9.174;2022-10-31T06:07:44;7.60;;;7.40;;
673;SDS011;319;48.764;9.174;2022-10-31T06:10:11;8.50;;;8.30;;
673;SDS011;319;48.764;9.174;2022-10-31T06:12:38;6.60;;;6.50;;
673;SDS011;319;48.764;9.174;2022-10-31T06:15:06;7.50;;;7.30;;
673;SDS011;319;48.764;9.174;2022-10-31T06:17:34;5.40;;;5.30;;
673;SDS011;319;48.764;9.174;2022-10-31T06:20:02;8.90;;;8.70;;
673;SDS011;319;48.764;9.174;2022-10-31T06:22:30;7.33;;;7.13;;
673;SDS011;319;48.764;9.174;2022-10-31T06:24:58;6.63;;;6.47;;
673;SDS011;319;48.764;9.174;2022-10-31T06:27:25;6.40;;;6.30;;
673;SDS011;319;48.764;9.174;2022-10-31T06:29:52;8.23;;;8.03;;
673;SDS011;319;48.764;9.174;2022-10-31T06:32:19;7.83;;;7.63;;
673;SDS011;319;48.764;9.174;2022-10-31T06:34:45;8.40;;;8.20;;
673;SDS011;319;48.764;9.174;2022-10-31T06:37:13;6.40;;;6.30;;
673;SDS011;319;48.764;9.174;2022-10-31T06:39:40;8.00;;;7.80;;
673;SDS011;319;48.764;9.174;2022-10-31T06:42:09;6.07;;;5.97;;
673;SDS011;319;48.764;9.174;2022-10-31T06:44:36;7.00;;;6.80;;
673;SDS011;319;48.764;9.174;2022-10-31T06:47:02;7.50;;;7.30;;
673;SDS011;319;48.764;9.174;2022-10-31T06:49:29;6.17;;;6.07;;
673;SDS011;319;48.764;9.174;2022-10-31T06:51:56;8.53;;;8.33;;
673;SDS011;319;48.764;9.174;2022-10-31T06:54:23;9.10;;;8.90;;
673;SDS011;319;48.764;9.174;2022-10-31T06:56:50;8.47;;;8.27;;
673;SDS011;319;48.764;9.174;2022-10-31T06:59:18;6.07;;;5.97;;
673;SDS011;319;48.764;9.174;2022-10-31T07:01:45;7.00;;;6.80;;
673;SDS011;319;48.764;9.174;2022-10-31T07:04:12;6.00;;;5.90;;
673;SDS011;319;48.764;9.174;2022-10-31T07:06:39;7.40;;;7.20;;
673;SDS011;319;48.764;9.174;2022-10-31T07:09:05;8.07;;;7.87;;
673;SDS011;319;48.764;9.174;2022-10-31T07:11:32;8.07;;;7.87;;
673;SDS011;319;48.764;9.174;2022-10-31T07:13:59;7.13;;;6.93;;
673;SDS011;319;48.764;9.174;2022-10-31T07:16:27;7.47;;;7.27;;
673;SDS011;319;48.764;9.174;2022-10-31T07:18:54;6.30;;;6.20;;
673;SDS011;319;48.764;9.174;2022-10-31T07:21:21;8.50;;;8.30;;
673;SDS011;319;48.764;9.174;2022-10-31T07:23:48;6.30;;;6.20;;
673;SDS011;319;48.764;9.174;2022-10-31T07:26:15;6.20;;;6.10;;
673;SDS011;319;48.764;9.174;2022-10-31T07:28:42;5.90;;;5.80;;
673;SDS011;319;48.764;9.174;2022-10-31T07:31:09;9.20;;;9.00;;
673;SDS011;319;48.764;9.174;2022-10-31T07:33:37;7.60;;;7.40;;
673;SDS011;319;48.764;9.174;2022-10-31T07:36:04;7.97;;;7.77;;
673;SDS011;319;48.764;9.174;2022-10-31T07:38:31;5.70;;;5.60;;
673;SDS011;319;48.764;9.174;2022-10-31T07:40:58;8.27;;;8.07;;
673;SDS011;319;48.764;9.174;2022-10-31T07:43:25;7.73;;;7.53;;
673;SDS011;319;48.764;9.174;2022-10-31T07:45:57;8.37;;;8.17;;
673;SDS011;319;48.764;9.174;2022-10-31T07:48:24;6.77;;;6.57;;
673;SDS011;319;48.764;9.174;2022-10-31T07:50:52;7.73;;;7.53;;
673;SDS011;319;48.764;9.174;2022-10-31T07:53:20;8.30;;;8.10;;
673;SDS011;319;48.764;9.174;2022-10-31T07:55:49;8.27;;;8.07;;
673;SDS011;319;48.764;9.174;2022-10-31T07:58:16;6.17;;;6.07;;
673;SDS011;319;48.764;9.174;2022-10-31T08:00:45;6.93;;;6.73;;
673;SDS011;319;48.764;9.174;2022-10-31T08:03:13;8.30;;;8.10;;
673;SDS011;319;48.764;9.174;2022-10-31T08:05:40;5.87;;;5.77;;
673;SDS011;319;48.764;9.174;2022-10-31T08:08:11;6.77;;;6.57;;
673;SDS011;319;48.764;9.174;2022-10-31T08:10:38;7.40;;;7.20;;
673;SDS011;319;48.764;9.174;2022-10-31T08:13:06;6.77;;;6.57;;
673;SDS011;319;48.764;9.174;2022-10-31T08:15:35;7.30;;;7.10;;
673;SDS011;319;48.764;9.174;2022-10-31T08:18:04;5.57;;;5.47;;
673;SDS011;319;48.764;9.174;2022-10-31T08:20:31;7.20;;;7.00;;
673;SDS011;319;48.764;9.174;2022-10-31T08:22:58;6.20;;;6.10;;
673;SDS011;319;48.764;9.174;2022-10-31T08:25:28;6.53;;;6.37;;
673;SDS011;319;48.764;9.174;2022-10-31T08:27:56;7.70;;;7.50;;
673;SDS011;319;48.764;9.174;2022-10-31T08:30:24;7.30;;;7.10;;
673;SDS011;319;48.764;9.174;2022-10-31T08:32:59;7.63;;;7.43;;
673;SDS011;319;48.764;9.174;2022-10-31T08:35:28;9.20;;;9.00;;
673;SDS011;319;48.764;9.174;2022-10-31T08:37:59;7.50;;;7.30;;
673;SDS011;319;48.764;9.174;2022-10-31T08:40:28;7.40;;;7.20;;
673;SDS011;319;48.764;9.174;2022-10-31T08:42:58;5.70;;;5.60;;
673;SDS011;319;48.764;9.174;2022-10-31T08:45:26;9.13;;;8.93;;
673;SDS011;319;48.764;9.174;2022-10-31T08:47:57;8.53;;;8.33;;
673;SDS011;319;48.764;9.174;2022-10-31T08:50:24;9.50;;;9.30;;
673;SDS011;319;48.764;9.174;2022-10-31T08:52:52;8.87;;;8.67;;
673;SDS011;319;48.764;9.174;2022-10-31T08:55:19;9.40;;;9.20;;
673;SDS011;319;48.764;9.174;2022-10-31T08:57:47;7.90;;;7.70;;
673;SDS011;319;48.764;9.174;2022-10-31T09:00:14;7.40;;;7.20;;
673;SDS011;319;48.764;9.174;2022-10-31T09:02:41;9.20;;;9.00;;
673;SDS011;319;48.764;9.174;2022-10-31T09:05:08;9.93;;;9.73;;
673;SDS011;319;48.764;9.174;2022-10-31T09:07:34;7.70;;;7.50;;
673;SDS011;319;48.764;9.174;2022-10-31T09:10:01;9.43;;;9.23;;
673;SDS011;319;48.764;9.174;2022-10-31T09:12:28;11.20;;;10.90;;
673;SDS011;319;48.764;9.174;2022-10-31T09:14:56;5.80;;;5.70;;
673;SDS011;319;48.764;9.174;2022-10-31T09:17:25;8.97;;;8.77;;
673;SDS011;319;48.764;9.174;2022-10-31T09:19:54;1.00;;;1.00;;
673;SDS011;319;48.764;9.174;2022-10-31T09:22:21;0.90;;;0.90;;
673;SDS011;319;48.764;9.174;2022-10-31T09:24:47;0.90;;;0.90;;
673;SDS011;319;48.764;9.174;2022-10-31T09:27:14;0.90;;;0.90;;
673;SDS011;319;48.764;9.174;2022-10-31T09:29:41;1.10;;;1.10;;
673;SDS011;319;48.764;9.174;2022-10-31T09:32:09;0.90;;;0.90;;
673;SDS011;319;48.764;9.174;2022-10-31T09:34:36;0.90;;;0.90;;
673;SDS011;319;48.764;9.174;2022-10-31T09:37:02;0.80;;;0.80;;
673;SDS011;319;48.764;9.174;2022-10-31T09:39:29;0.90;;;0.90;;
673;SDS011;319;48.764;9.174;2022-10-31T09:42:00;0.90;;;0.90;;
673;SDS011;319;48.764;9.174;2022-10-31T09:44:38;0.90;;;0.90;;
673;SDS011;319;48.764;9.174;2022-10-31T09:47:15;0.90;;;0.90;;
673;SDS011;319;48.764;9.174;2022-10-31T09:49:53;1.00;;;1.00;;
673;SDS011;319;48.764;9.174;2022-10-31T09:52:27;0.80;;;0.80;;
673;SDS011;319;48.764;9.174;2022-10-31T09:54:58;0.90;;;0.90;;
673;SDS011;319;48.764;9.174;2022-10-31T09:57:27;0.90;;;0.90;;
673;SDS011;319;48.764;9.174;2022-10-31T09:59:57;0.90;;;0.90;;
673;SDS011;319;48.764;9.174;2022-10-31T10:02:29;0.90;;;0.90;;
673;SDS011;319;48.764;9.174;2022-10-31T10:05:04;0.93;;;0.93;;
673;SDS011;319;48.764;9.174;2022-10-31T10:07:38;0.80;;;0.80;;
673;SDS011;319;48.764;9.174;2022-10-31T10:10:13;0.90;;;0.90;;
673;SDS011;319;48.764;9.174;2022-10-31T10:12:47;0.90;;;0.90;;
673;SDS011;319;48.764;9.174;2022-10-31T10:15:32;0.80;;;0.80;;
673;SDS011;319;48.764;9.174;2022-10-31T10:18:15;0.90;;;0.90;;
673;SDS011;319;48.764;9.174;2022-10-31T10:20:54;0.90;;;0.90;;
673;SDS011;319;48.764;9.174;2022-10-31T10:23:43;0.90;;;0.90;;
673;SDS011;319;48.764;9.174;2022-10-31T10:26:18;0.90;;;0.90;;
673;SDS011;319;48.764;9.174;2022-10-31T10:28:47;0.90;;;0.90;;
673;SDS011;319;48.764;9.174;2022-10-31T10:31:18;0.87;;;0.87;;
673;SDS011;319;48.764;9.174;2022-10-31T10:33:54;0.90;;;0.90;;
673;SDS011;319;48.764;9.174;2022-10-31T10:36:27;0.90;;;0.90;;
673;SDS011;319;48.764;9.174;2022-10-31T10:38:57;0.90;;;0.90;;
673;SDS011;319;48.764;9.174;2022-10-31T10:41:29;0.80;;;0.80;;
673;SDS011;319;48.764;9.174;2022-10-31T10:43:58;0.80;;;0.80;;
673;SDS011;319;48.764;9.174;2022-10-31T10:46:25;0.90;;;0.90;;
673;SDS011;319;48.764;9.174;2022-10-31T10:49:19;0.90;;;0.90;;
673;SDS011;319;48.764;9.174;2022-10-31T10:51:51;0.80;;;0.80;;
673;SDS011;319;48.764;9.174;2022-10-31T10:54:39;0.90;;;0.90;;
673;SDS011;319;48.764;9.174;2022-10-31T10:57:15;0.90;;;0.90;;
673;SDS011;319;48.764;9.174;2022-10-31T10:59:50;0.90;;;0.90;;
673;SDS011;319;48.764;9.174;2022-10-31T11:02:17;0.83;;;0.83;;
673;SDS011;319;48.764;9.174;2022-10-31T11:04:48;0.80;;;0.80;;
673;SDS011;319;48.764;9.174;2022-10-31T11:07:17;0.90;;;0.90;;
673;SDS011;319;48.764;9.174;2022-10-31T11:09:44;0.80;;;0.80;;
673;SDS011;319;48.764;9.174;2022-10-31T11:12:16;0.90;;;0.90;;
673;SDS011;319;48.764;9.174;2022-10-31T11:14:47;0.80;;;0.80;;
673;SDS011;319;48.764;9.174;2022-10-31T11:17:19;0.90;;;0.90;;
673;SDS011;319;48.764;9.174;2022-10-31T11:20:00;0.80;;;0.80;;
673;SDS011;319;48.764;9.174;2022-10-31T11:22:29;0.90;;;0.90;;
673;SDS011;319;48.764;9.174;2022-10-31T11:24:56;0.90;;;0.90;;
673;SDS011;319;48.764;9.174;2022-10-31T11:27:24;0.80;;;0.80;;
673;SDS011;319;48.764;9.174;2022-10-31T11:29:51;0.80;;;0.80;;
673;SDS011;319;48.764;9.174;2022-10-31T11:32:19;0.90;;;0.90;;
673;SDS011;319;48.764;9.174;2022-10-31T11:34:49;0.90;;;0.90;;
673;SDS011;319;48.764;9.174;2022-10-31T11:37:21;0.90;;;0.90;;
673;SDS011;319;48.764;9.174;2022-10-31T11:39:52;0.80;;;0.80;;
673;SDS011;319;48.764;9.174;2022-10-31T11:42:21;0.80;;;0.80;;
673;SDS011;319;48.764;9.174;2022-10-31T11:44:51;0.80;;;0.80;;
673;SDS011;319;48.764;9.174;2022-10-31T11:47:23;0.80;;;0.80;;
673;SDS011;319;48.764;9.174;2022-10-31T11:49:52;0.80;;;0.80;;
673;SDS011;319;48.764;9.174;2022-10-31T11:52:23;0.80;;;0.80;;
673;SDS011;319;48.764;9.174;2022-10-31T11:54:53;0.80;;;0.80;;
673;SDS011;319;48.764;9.174;2022-10-31T11:57:22;0.80;;;0.80;;
673;SDS011;319;48.764;9.174;2022-10-31T11:59:54;1.93;;;1.93;;
673;SDS011;319;48.764;9.174;2022-10-31T12:02:22;0.80;;;0.80;;
673;SDS011;319;48.764;9.174;2022-10-31T12:04:51;0.90;;;0.90;;
673;SDS011;319;48.764;9.174;2022-10-31T12:07:28;1.00;;;1.00;;
673;SDS011;319;48.764;9.174;2022-10-31T12:09:55;0.90;;;0.90;;
673;SDS011;319;48.764;9.174;2022-10-31T12:12:34;0.80;;;0.80;;
673;SDS011;319;48.764;9.174;2022-10-31T12:15:31;0.90;;;0.90;;
673;SDS011;319;48.764;9.174;2022-10-31T12:18:04;0.90;;;0.90;;
673;SDS011;319;48.764;9.174;2022-10-31T12:20:51;0.90;;;0.90;;
673;SDS011;319;48.764;9.174;2022-10-31T12:23:32;0.90;;;0.90;;
673;SDS011;319;48.764;9.174;2022-10-31T12:26:08;0.90;;;0.90;;
673;SDS011;319;48.764;9.174;2022-10-31T12:28:45;0.90;;;0.90;;
673;SDS011;319;48.764;9.174;2022-10-31T12:31:32;0.90;;;0.90;;
673;SDS011;319;48.764;9.174;2022-10-31T12:34:24;3.70;;;3.53;;
673;SDS011;319;48.764;9.174;2022-10-31T12:37:03;0.80;;;0.80;;
673;SDS011;319;48.764;9.174;2022-10-31T12:39:42;0.90;;;0.90;;
673;SDS011;319;48.764;9.174;2022-10-31T12:42:19;0.90;;;0.90;;
673;SDS011;319;48.764;9.174;2022-10-31T12:45:01;0.90;;;0.90;;
673;SDS011;319;48.764;9.174;2022-10-31T12:50:27;0.90;;;0.90;;
673;SDS011;319;48.764;9.174;2022-10-31T12:53:04;0.80;;;0.80;;
673;SDS011;319;48.764;9.174;2022-10-31T12:55:45;0.90;;;0.90;;
673;SDS011;319;48.764;9.174;2022-10-31T12:58:22;0.90;;;0.90;;
673;SDS011;319;48.764;9.174;2022-10-31T13:00:55;0.90;;;0.90;;
673;SDS011;319;48.764;9.174;2022-10-31T13:03:30;0.90;;;0.90;;
673;SDS011;319;48.764;9.174;2022-10-31T13:06:03;0.80;;;0.80;;
673;SDS011;319;48.764;9.174;2022-10-31T13:08:34;0.90;;;0.90;;
673;SDS011;319;48.764;9.174;2022-10-31T13:11:08;0.87;;;0.87;;
673;SDS011;319;48.764;9.174;2022-10-31T13:13:37;0.90;;;0.90;;
673;SDS011;319;48.764;9.174;2022-10-31T13:16:09;0.80;;;0.80;;
673;SDS011;319;48.764;9.174;2022-10-31T13:18:40;0.80;;;0.80;;
673;SDS011;319;48.764;9.174;2022-10-31T13:21:12;0.87;;;0.87;;
673;SDS011;319;48.764;9.174;2022-10-31T13:23:44;0.90;;;0.90;;
673;SDS011;319;48.764;9.174;2022-10-31T13:26:18;0.80;;;0.80;;
673;SDS011;319;48.764;9.174;2022-10-31T13:28:48;0.90;;;0.90;;
673;SDS011;319;48.764;9.174;2022-10-31T13:31:20;0.77;;;0.77;;
673;SDS011;319;48.764;9.174;2022-10-31T13:33:48;0.80;;;0.80;;
673;SDS011;319;48.764;9.174;2022-10-31T13:36:20;0.80;;;0.80;;
673;SDS011;319;48.764;9.174;2022-10-31T13:38:53;0.80;;;0.80;;
673;SDS011;319;48.764;9.174;2022-10-31T13:41:30;0.80;;;0.80;;
673;SDS011;319;48.764;9.174;2022-10-31T13:44:04;0.90;;;0.90;;
673;SDS011;319;48.764;9.174;2022-10-31T13:46:37;0.90;;;0.90;;
673;SDS011;319;48.764;9.174;2022-10-31T13:49:21;0.80;;;0.80;;
673;SDS011;319;48.764;9.174;2022-10-31T13:51:51;0.80;;;0.80;;
673;SDS011;319;48.764;9.174;2022-10-31T13:54:20;0.90;;;0.90;;
673;SDS011;319;48.764;9.174;2022-10-31T13:56:50;0.90;;;0.90;;
673;SDS011;319;48.764;9.174;2022-10-31T13:59:19;0.90;;;0.90;;
673;SDS011;319;48.764;9.174;2022-10-31T14:01:49;0.80;;;0.80;;
673;SDS011;319;48.764;9.174;2022-10-31T14:04:23;0.90;;;0.90;;
673;SDS011;319;48.764;9.174;2022-10-31T14:06:54;0.90;;;0.90;;
673;SDS011;319;48.764;9.174;2022-10-31T14:09:29;0.90;;;0.90;;
673;SDS011;319;48.764;9.174;2022-10-31T14:12:01;0.80;;;0.80;;
673;SDS011;319;48.764;9.174;2022-10-31T14:14:33;0.80;;;0.80;;
673;SDS011;319;48.764;9.174;2022-10-31T14:17:12;0.90;;;0.90;;
673;SDS011;319;48.764;9.174;2022-10-31T14:19:55;0.80;;;0.80;;
673;SDS011;319;48.764;9.174;2022-10-31T14:22:28;2.03;;;1.93;;
673;SDS011;319;48.764;9.174;2022-10-31T14:24:58;0.90;;;0.90;;
673;SDS011;319;48.764;9.174;2022-10-31T14:30:18;0.90;;;0.90;;
673;SDS011;319;48.764;9.174;2022-10-31T14:32:49;0.90;;;0.90;;
673;SDS011;319;48.764;9.174;2022-10-31T14:35:18;0.80;;;0.80;;
673;SDS011;319;48.764;9.174;2022-10-31T14:37:56;0.80;;;0.80;;
673;SDS011;319;48.764;9.174;2022-10-31T14:40:37;0.90;;;0.90;;
673;SDS011;319;48.764;9.174;2022-10-31T14:43:19;0.90;;;0.90;;
673;SDS011;319;48.764;9.174;2022-10-31T14:46:15;0.90;;;0.90;;
673;SDS011;319;48.764;9.174;2022-10-31T14:49:04;0.90;;;0.90;;
673;SDS011;319;48.764;9.174;2022-10-31T14:51:42;0.83;;;0.83;;
673;SDS011;319;48.764;9.174;2022-10-31T14:54:13;0.90;;;0.90;;
673;SDS011;319;48.764;9.174;2022-10-31T14:56:46;0.90;;;0.90;;
673;SDS011;319;48.764;9.174;2022-10-31T14:59:18;4.73;;;3.57;;
673;SDS011;319;48.764;9.174;2022-10-31T15:01:52;0.97;;;0.97;;
673;SDS011;319;48.764;9.174;2022-10-31T15:04:23;0.90;;;0.90;;
673;SDS011;319;48.764;9.174;2022-10-31T15:06:53;0.80;;;0.80;;
673;SDS011;319;48.764;9.174;2022-10-31T15:09:26;0.80;;;0.80;;
673;SDS011;319;48.764;9.174;2022-10-31T15:11:57;0.93;;;0.93;;
673;SDS011;319;48.764;9.174;2022-10-31T15:14:28;0.80;;;0.80;;
673;SDS011;319;48.764;9.174;2022-10-31T15:16:57;0.90;;;0.90;;
673;SDS011;319;48.764;9.174;2022-10-31T15:19:28;0.90;;;0.90;;
673;SDS011;319;48.764;9.174;2022-10-31T15:21:57;0.90;;;0.90;;
673;SDS011;319;48.764;9.174;2022-10-31T15:24:24;0.90;;;0.90;;
673;SDS011;319;48.764;9.174;2022-10-31T15:26:56;0.83;;;0.83;;
673;SDS011;319;48.764;9.174;2022-10-31T15:29:24;0.90;;;0.90;;
673;SDS011;319;48.764;9.174;2022-10-31T15:31:55;0.80;;;0.80;;
673;SDS011;319;48.764;9.174;2022-10-31T15:34:25;0.83;;;0.83;;
673;SDS011;319;48.764;9.174;2022-10-31T15:36:55;0.90;;;0.90;;
673;SDS011;319;48.764;9.174;2022-10-31T15:39:22;0.80;;;0.80;;
673;SDS011;319;48.764;9.174;2022-10-31T15:41:58;1.00;;;1.00;;
673;SDS011;319;48.764;9.174;2022-10-31T15:44:28;0.90;;;0.90;;
673;SDS011;319;48.764;9.174;2022-10-31T15:47:00;1.00;;;1.00;;
673;SDS011;319;48.764;9.174;2022-10-31T15:49:34;0.90;;;0.90;;
673;SDS011;319;48.764;9.174;2022-10-31T15:52:05;0.97;;;0.97;;
673;SDS011;319;48.764;9.174;2022-10-31T15:54:36;0.90;;;0.90;;
673;SDS011;319;48.764;9.174;2022-10-31T15:57:29;0.90;;;0.90;;
673;SDS011;319;48.764;9.174;2022-10-31T16:03:01;0.90;;;0.90;;
673;SDS011;319;48.764;9.174;2022-10-31T16:05:38;1.00;;;1.00;;
673;SDS011;319;48.764;9.174;2022-10-31T16:08:32;0.90;;;0.90;;
673;SDS011;319;48.764;9.174;2022-10-31T16:11:02;0.90;;;0.90;;
673;SDS011;319;48.764;9.174;2022-10-31T16:13:51;0.90;;;0.90;;
673;SDS011;319;48.764;9.174;2022-10-31T16:16:22;0.90;;;0.90;;